sensor_id;sensor_type;location;lat;lon;timestamp;temperature;humidity
22827;DHT22;11580;52.562;13.418;2023-10-19T00:01:07;11.60;24.80
22827;DHT22;11580;52.562;13.418;2023-10-19T00:03:35;11.60;24.80
22827;DHT22;11580;52.562;13.418;2023-10-19T00:06:02;11.60;25.30
22827;DHT22;11580;52.562;13.418;2023-10-19T00:08:32;11.60;24.80
22827;DHT22;11580;52.562;13.418;2023-10-19T00:11:07;11.50;24.90
22827;DHT22;11580;52.562;13.418;2023-10-19T00:13:34;11.50;24.90
22827;DHT22;11580;52.562;13.418;2023-10-19T00:16:03;11.50;25.50
22827;DHT22;11580;52.562;13.418;2023-10-19T00:18:37;11.50;24.90
22827;DHT22;11580;52.562;13.418;2023-10-19T00:21:08;11.50;24.90
22827;DHT22;11580;52.562;13.418;2023-10-19T00:23:46;11.50;24.90
22827;DHT22;11580;52.562;13.418;2023-10-19T00:26:15;11.50;25.00
22827;DHT22;11580;52.562;13.418;2023-10-19T00:28:53;11.50;25.00
22827;DHT22;11580;52.562;13.418;2023-10-19T00:31:21;11.40;24.90
22827;DHT22;11580;52.562;13.418;2023-10-19T00:33:49;11.40;24.90
22827;DHT22;11580;52.562;13.418;2023-10-19T00:36:18;11.40;24.90
22827;DHT22;11580;52.562;13.418;2023-10-19T00:38:48;11.40;25.00
22827;DHT22;11580;52.562;13.418;2023-10-19T00:41:20;11.40;25.00
22827;DHT22;11580;52.562;13.418;2023-10-19T00:43:53;11.30;25.00
22827;DHT22;11580;52.562;13.418;2023-10-19T00:46:29;11.30;25.00
22827;DHT22;11580;52.562;13.418;2023-10-19T00:49:04;11.40;25.10
22827;DHT22;11580;52.562;13.418;2023-10-19T00:51:35;11.30;25.00
22827;DHT22;11580;52.562;13.418;2023-10-19T00:54:20;11.30;25.10
22827;DHT22;11580;52.562;13.418;2023-10-19T00:56:57;11.30;25.20
22827;DHT22;11580;52.562;13.418;2023-10-19T00:59:30;11.30;25.10
22827;DHT22;11580;52.562;13.418;2023-10-19T01:02:01;11.20;25.10
22827;DHT22;11580;52.562;13.418;2023-10-19T01:04:42;11.20;25.10
22827;DHT22;11580;52.562;13.418;2023-10-19T01:07:12;11.20;25.10
22827;DHT22;11580;52.562;13.418;2023-10-19T01:09:50;11.20;25.20
22827;DHT22;11580;52.562;13.418;2023-10-19T01:12:19;11.20;25.20
22827;DHT22;11580;52.562;13.418;2023-10-19T01:15:02;11.20;25.30
22827;DHT22;11580;52.562;13.418;2023-10-19T01:17:34;11.20;25.30
22827;DHT22;11580;52.562;13.418;2023-10-19T01:20:07;11.20;25.80
22827;DHT22;11580;52.562;13.418;2023-10-19T01:22:57;11.20;25.30
22827;DHT22;11580;52.562;13.418;2023-10-19T01:25:47;11.20;25.90
22827;DHT22;11580;52.562;13.418;2023-10-19T01:28:26;11.20;25.30
22827;DHT22;11580;52.562;13.418;2023-10-19T01:31:07;11.20;25.30
22827;DHT22;11580;52.562;13.418;2023-10-19T01:33:40;11.20;25.30
22827;DHT22;11580;52.562;13.418;2023-10-19T01:36:10;11.20;25.30
22827;DHT22;11580;52.562;13.418;2023-10-19T01:38:37;11.20;25.30
22827;DHT22;11580;52.562;13.418;2023-10-19T01:41:06;11.20;25.40
22827;DHT22;11580;52.562;13.418;2023-10-19T01:43:40;11.20;25.40
22827;DHT22;11580;52.562;13.418;2023-10-19T01:46:07;11.10;25.30
22827;DHT22;11580;52.562;13.418;2023-10-19T01:48:38;11.10;25.30
22827;DHT22;11580;52.562;13.418;2023-10-19T01:51:09;11.20;25.40
22827;DHT22;11580;52.562;13.418;2023-10-19T01:53:41;11.20;25.50
22827;DHT22;11580;52.562;13.418;2023-10-19T01:56:10;11.20;25.50
22827;DHT22;11580;52.562;13.418;2023-10-19T01:58:39;11.20;25.40
22827;DHT22;11580;52.562;13.418;2023-10-19T02:01:07;11.20;25.50
22827;DHT22;11580;52.562;13.418;2023-10-19T02:03:41;11.20;25.50
22827;DHT22;11580;52.562;13.418;2023-10-19T02:06:08;11.20;25.40
22827;DHT22;11580;52.562;13.418;2023-10-19T02:08:45;11.20;25.40
22827;DHT22;11580;52.562;13.418;2023-10-19T02:13:44;11.20;25.40
22827;DHT22;11580;52.562;13.418;2023-10-19T02:16:13;11.20;25.40
22827;DHT22;11580;52.562;13.418;2023-10-19T02:18:42;11.20;25.40
22827;DHT22;11580;52.562;13.418;2023-10-19T02:21:10;11.30;25.50
22827;DHT22;11580;52.562;13.418;2023-10-19T02:23:40;11.30;25.50
22827;DHT22;11580;52.562;13.418;2023-10-19T02:26:09;11.30;25.50
22827;DHT22;11580;52.562;13.418;2023-10-19T02:28:39;11.30;26.10
22827;DHT22;11580;52.562;13.418;2023-10-19T02:31:06;11.30;25.50
22827;DHT22;11580;52.562;13.418;2023-10-19T02:33:44;11.30;25.50
22827;DHT22;11580;52.562;13.418;2023-10-19T02:36:17;11.40;25.50
22827;DHT22;11580;52.562;13.418;2023-10-19T02:38:46;11.40;25.50
22827;DHT22;11580;52.562;13.418;2023-10-19T02:41:16;11.40;25.50
22827;DHT22;11580;52.562;13.418;2023-10-19T02:43:45;11.50;26.10
22827;DHT22;11580;52.562;13.418;2023-10-19T02:46:13;11.50;25.50
22827;DHT22;11580;52.562;13.418;2023-10-19T02:48:42;11.50;25.40
22827;DHT22;11580;52.562;13.418;2023-10-19T02:51:10;11.60;25.50
22827;DHT22;11580;52.562;13.418;2023-10-19T02:53:39;11.60;25.40
22827;DHT22;11580;52.562;13.418;2023-10-19T02:56:13;11.60;25.40
22827;DHT22;11580;52.562;13.418;2023-10-19T02:58:45;11.60;25.90
22827;DHT22;11580;52.562;13.418;2023-10-19T03:01:16;11.60;25.30
22827;DHT22;11580;52.562;13.418;2023-10-19T03:03:50;11.70;25.90
22827;DHT22;11580;52.562;13.418;2023-10-19T03:06:20;11.70;25.30
22827;DHT22;11580;52.562;13.418;2023-10-19T03:08:49;11.70;25.20
22827;DHT22;11580;52.562;13.418;2023-10-19T03:11:23;11.70;25.20
22827;DHT22;11580;52.562;13.418;2023-10-19T03:13:52;11.70;25.70
22827;DHT22;11580;52.562;13.418;2023-10-19T03:16:18;11.80;25.20
22827;DHT22;11580;52.562;13.418;2023-10-19T03:18:46;11.80;25.20
22827;DHT22;11580;52.562;13.418;2023-10-19T03:21:13;11.80;25.80
22827;DHT22;11580;52.562;13.418;2023-10-19T03:23:42;11.80;25.20
22827;DHT22;11580;52.562;13.418;2023-10-19T03:26:08;11.80;25.20
22827;DHT22;11580;52.562;13.418;2023-10-19T03:28:48;11.80;25.10
22827;DHT22;11580;52.562;13.418;2023-10-19T03:31:16;11.80;25.10
22827;DHT22;11580;52.562;13.418;2023-10-19T03:33:44;11.80;25.00
22827;DHT22;11580;52.562;13.418;2023-10-19T03:36:14;11.80;25.00
22827;DHT22;11580;52.562;13.418;2023-10-19T03:38:41;11.80;24.90
22827;DHT22;11580;52.562;13.418;2023-10-19T03:41:09;11.80;24.90
22827;DHT22;11580;52.562;13.418;2023-10-19T03:43:37;11.90;25.00
22827;DHT22;11580;52.562;13.418;2023-10-19T03:46:06;11.90;25.00
22827;DHT22;11580;52.562;13.418;2023-10-19T03:48:46;11.80;24.90
22827;DHT22;11580;52.562;13.418;2023-10-19T03:51:13;11.90;24.90
22827;DHT22;11580;52.562;13.418;2023-10-19T03:53:40;11.90;24.90
22827;DHT22;11580;52.562;13.418;2023-10-19T03:56:12;11.90;25.50
22827;DHT22;11580;52.562;13.418;2023-10-19T03:58:39;12.00;25.00
22827;DHT22;11580;52.562;13.418;2023-10-19T04:01:09;11.90;25.50
22827;DHT22;11580;52.562;13.418;2023-10-19T04:03:37;11.90;25.00
22827;DHT22;11580;52.562;13.418;2023-10-19T04:06:05;11.90;25.00
22827;DHT22;11580;52.562;13.418;2023-10-19T04:08:39;11.90;25.00
22827;DHT22;11580;52.562;13.418;2023-10-19T04:11:06;11.90;25.00
22827;DHT22;11580;52.562;13.418;2023-10-19T04:13:50;11.90;24.90
22827;DHT22;11580;52.562;13.418;2023-10-19T04:16:20;11.90;25.20
22827;DHT22;11580;52.562;13.418;2023-10-19T04:18:47;11.90;24.90
22827;DHT22;11580;52.562;13.418;2023-10-19T04:21:17;11.90;25.00
22827;DHT22;11580;52.562;13.418;2023-10-19T04:23:44;11.90;24.90
22827;DHT22;11580;52.562;13.418;2023-10-19T04:26:12;11.90;24.90
22827;DHT22;11580;52.562;13.418;2023-10-19T04:28:44;11.90;25.00
22827;DHT22;11580;52.562;13.418;2023-10-19T04:31:15;11.90;24.90
22827;DHT22;11580;52.562;13.418;2023-10-19T04:33:43;11.90;24.90
22827;DHT22;11580;52.562;13.418;2023-10-19T04:36:14;11.90;24.90
22827;DHT22;11580;52.562;13.418;2023-10-19T04:38:43;11.90;25.00
22827;DHT22;11580;52.562;13.418;2023-10-19T04:41:11;11.90;25.50
22827;DHT22;11580;52.562;13.418;2023-10-19T04:43:39;11.90;25.50
22827;DHT22;11580;52.562;13.418;2023-10-19T04:46:10;11.90;25.00
22827;DHT22;11580;52.562;13.418;2023-10-19T04:48:38;11.90;24.90
22827;DHT22;11580;52.562;13.418;2023-10-19T04:51:08;11.90;25.50
22827;DHT22;11580;52.562;13.418;2023-10-19T04:53:36;11.80;24.90
22827;DHT22;11580;52.562;13.418;2023-10-19T04:56:05;11.80;24.90
22827;DHT22;11580;52.562;13.418;2023-10-19T04:58:36;11.80;24.90
22827;DHT22;11580;52.562;13.418;2023-10-19T05:01:03;11.80;24.90
22827;DHT22;11580;52.562;13.418;2023-10-19T05:03:31;11.80;24.90
22827;DHT22;11580;52.562;13.418;2023-10-19T05:06:00;11.80;25.40
22827;DHT22;11580;52.562;13.418;2023-10-19T05:08:27;11.80;24.90
22827;DHT22;11580;52.562;13.418;2023-10-19T05:10:55;11.80;24.90
22827;DHT22;11580;52.562;13.418;2023-10-19T05:13:26;11.80;24.90
22827;DHT22;11580;52.562;13.418;2023-10-19T05:15:55;11.80;24.90
22827;DHT22;11580;52.562;13.418;2023-10-19T05:18:25;11.80;24.90
22827;DHT22;11580;52.562;13.418;2023-10-19T05:20:53;11.80;24.90
22827;DHT22;11580;52.562;13.418;2023-10-19T05:23:22;11.80;24.90
22827;DHT22;11580;52.562;13.418;2023-10-19T05:25:50;11.80;24.90
22827;DHT22;11580;52.562;13.418;2023-10-19T05:28:19;11.80;24.90
22827;DHT22;11580;52.562;13.418;2023-10-19T05:30:48;11.80;24.90
22827;DHT22;11580;52.562;13.418;2023-10-19T05:33:16;11.80;25.00
22827;DHT22;11580;52.562;13.418;2023-10-19T05:35:47;11.80;25.00
22827;DHT22;11580;52.562;13.418;2023-10-19T05:38:14;11.80;25.00
22827;DHT22;11580;52.562;13.418;2023-10-19T05:40:42;11.80;25.10
22827;DHT22;11580;52.562;13.418;2023-10-19T05:43:10;11.70;25.00
22827;DHT22;11580;52.562;13.418;2023-10-19T05:45:38;11.70;25.00
22827;DHT22;11580;52.562;13.418;2023-10-19T05:48:07;11.70;25.00
22827;DHT22;11580;52.562;13.418;2023-10-19T05:50:35;11.60;25.10
22827;DHT22;11580;52.562;13.418;2023-10-19T05:53:03;11.60;25.20
22827;DHT22;11580;52.562;13.418;2023-10-19T05:55:31;11.50;25.40
22827;DHT22;11580;52.562;13.418;2023-10-19T05:57:59;11.50;25.40
22827;DHT22;11580;52.562;13.418;2023-10-19T06:00:27;11.50;25.50
22827;DHT22;11580;52.562;13.418;2023-10-19T06:02:54;11.40;25.70
22827;DHT22;11580;52.562;13.418;2023-10-19T06:05:22;11.40;26.50
22827;DHT22;11580;52.562;13.418;2023-10-19T06:07:50;11.40;26.10
22827;DHT22;11580;52.562;13.418;2023-10-19T06:10:19;11.40;26.20
22827;DHT22;11580;52.562;13.418;2023-10-19T06:12:49;11.30;26.30
22827;DHT22;11580;52.562;13.418;2023-10-19T06:15:19;11.30;26.40
22827;DHT22;11580;52.562;13.418;2023-10-19T06:17:49;11.30;26.40
22827;DHT22;11580;52.562;13.418;2023-10-19T06:20:17;11.40;27.10
22827;DHT22;11580;52.562;13.418;2023-10-19T06:22:54;11.30;26.50
22827;DHT22;11580;52.562;13.418;2023-10-19T06:25:24;11.30;26.80
22827;DHT22;11580;52.562;13.418;2023-10-19T06:27:52;11.30;26.80
22827;DHT22;11580;52.562;13.418;2023-10-19T06:30:23;11.30;26.90
22827;DHT22;11580;52.562;13.418;2023-10-19T06:32:53;11.30;27.10
22827;DHT22;11580;52.562;13.418;2023-10-19T06:35:22;11.30;27.90
22827;DHT22;11580;52.562;13.418;2023-10-19T06:37:50;11.30;27.20
22827;DHT22;11580;52.562;13.418;2023-10-19T06:40:18;11.30;27.20
22827;DHT22;11580;52.562;13.418;2023-10-19T06:42:46;11.30;27.40
22827;DHT22;11580;52.562;13.418;2023-10-19T06:45:14;11.30;27.80
22827;DHT22;11580;52.562;13.418;2023-10-19T06:47:42;11.30;27.30
22827;DHT22;11580;52.562;13.418;2023-10-19T06:50:11;11.30;27.20
22827;DHT22;11580;52.562;13.418;2023-10-19T06:52:41;11.30;27.30
22827;DHT22;11580;52.562;13.418;2023-10-19T06:55:10;11.30;27.40
22827;DHT22;11580;52.562;13.418;2023-10-19T06:57:42;11.30;27.40
22827;DHT22;11580;52.562;13.418;2023-10-19T07:00:11;11.40;27.60
22827;DHT22;11580;52.562;13.418;2023-10-19T07:02:42;11.40;27.60
22827;DHT22;11580;52.562;13.418;2023-10-19T07:05:10;11.40;27.60
22827;DHT22;11580;52.562;13.418;2023-10-19T07:07:39;11.50;27.60
22827;DHT22;11580;52.562;13.418;2023-10-19T07:10:08;11.50;27.60
22827;DHT22;11580;52.562;13.418;2023-10-19T07:12:39;11.50;27.60
22827;DHT22;11580;52.562;13.418;2023-10-19T07:15:09;11.60;27.60
22827;DHT22;11580;52.562;13.418;2023-10-19T07:17:40;11.70;27.70
22827;DHT22;11580;52.562;13.418;2023-10-19T07:20:08;11.70;27.50
22827;DHT22;11580;52.562;13.418;2023-10-19T07:22:47;11.80;27.50
22827;DHT22;11580;52.562;13.418;2023-10-19T07:25:15;11.80;27.80
22827;DHT22;11580;52.562;13.418;2023-10-19T07:27:46;11.90;27.20
22827;DHT22;11580;52.562;13.418;2023-10-19T07:30:15;11.90;27.70
22827;DHT22;11580;52.562;13.418;2023-10-19T07:32:47;11.90;27.20
22827;DHT22;11580;52.562;13.418;2023-10-19T07:35:20;12.00;27.30
22827;DHT22;11580;52.562;13.418;2023-10-19T07:37:48;12.10;27.30
22827;DHT22;11580;52.562;13.418;2023-10-19T07:40:16;12.00;27.10
22827;DHT22;11580;52.562;13.418;2023-10-19T07:42:44;12.10;27.10
22827;DHT22;11580;52.562;13.418;2023-10-19T07:45:12;12.10;27.00
22827;DHT22;11580;52.562;13.418;2023-10-19T07:47:41;12.20;26.90
22827;DHT22;11580;52.562;13.418;2023-10-19T07:50:10;12.20;26.90
22827;DHT22;11580;52.562;13.418;2023-10-19T07:52:41;12.20;26.90
22827;DHT22;11580;52.562;13.418;2023-10-19T07:55:09;12.20;26.90
22827;DHT22;11580;52.562;13.418;2023-10-19T07:57:37;12.30;27.10
22827;DHT22;11580;52.562;13.418;2023-10-19T08:00:07;12.30;27.00
22827;DHT22;11580;52.562;13.418;2023-10-19T08:02:36;12.40;27.20
22827;DHT22;11580;52.562;13.418;2023-10-19T08:05:05;12.40;27.00
22827;DHT22;11580;52.562;13.418;2023-10-19T08:07:32;12.50;26.90
22827;DHT22;11580;52.562;13.418;2023-10-19T08:10:02;12.60;26.70
22827;DHT22;11580;52.562;13.418;2023-10-19T08:12:31;12.70;26.70
22827;DHT22;11580;52.562;13.418;2023-10-19T08:14:59;12.80;26.60
22827;DHT22;11580;52.562;13.418;2023-10-19T08:17:26;12.70;26.50
22827;DHT22;11580;52.562;13.418;2023-10-19T08:19:53;12.80;26.40
22827;DHT22;11580;52.562;13.418;2023-10-19T08:22:22;12.80;26.40
22827;DHT22;11580;52.562;13.418;2023-10-19T08:24:50;12.80;26.30
22827;DHT22;11580;52.562;13.418;2023-10-19T08:27:17;12.80;26.30
22827;DHT22;11580;52.562;13.418;2023-10-19T08:29:45;12.90;26.30
22827;DHT22;11580;52.562;13.418;2023-10-19T08:32:12;12.90;26.30
22827;DHT22;11580;52.562;13.418;2023-10-19T08:34:41;13.00;26.40
22827;DHT22;11580;52.562;13.418;2023-10-19T08:37:09;13.00;26.40
22827;DHT22;11580;52.562;13.418;2023-10-19T08:39:37;13.00;26.40
22827;DHT22;11580;52.562;13.418;2023-10-19T08:42:06;13.10;26.40
22827;DHT22;11580;52.562;13.418;2023-10-19T08:44:33;13.10;27.00
22827;DHT22;11580;52.562;13.418;2023-10-19T08:47:01;13.30;26.50
22827;DHT22;11580;52.562;13.418;2023-10-19T08:49:30;13.40;26.60
22827;DHT22;11580;52.562;13.418;2023-10-19T08:51:59;13.40;27.00
22827;DHT22;11580;52.562;13.418;2023-10-19T08:54:30;13.40;26.40
22827;DHT22;11580;52.562;13.418;2023-10-19T08:57:00;13.50;26.30
22827;DHT22;11580;52.562;13.418;2023-10-19T08:59:28;13.60;26.10
22827;DHT22;11580;52.562;13.418;2023-10-19T09:02:00;13.70;26.20
22827;DHT22;11580;52.562;13.418;2023-10-19T09:04:28;13.70;26.20
22827;DHT22;11580;52.562;13.418;2023-10-19T09:06:55;13.70;26.10
22827;DHT22;11580;52.562;13.418;2023-10-19T09:09:22;13.80;26.20
22827;DHT22;11580;52.562;13.418;2023-10-19T09:11:51;13.90;26.80
22827;DHT22;11580;52.562;13.418;2023-10-19T09:14:31;14.10;26.40
22827;DHT22;11580;52.562;13.418;2023-10-19T09:17:02;14.00;25.70
22827;DHT22;11580;52.562;13.418;2023-10-19T09:19:38;14.10;26.00
22827;DHT22;11580;52.562;13.418;2023-10-19T09:22:08;14.10;25.60
22827;DHT22;11580;52.562;13.418;2023-10-19T09:24:43;14.20;25.80
22827;DHT22;11580;52.562;13.418;2023-10-19T09:27:12;14.20;26.10
22827;DHT22;11580;52.562;13.418;2023-10-19T09:29:41;14.20;25.40
22827;DHT22;11580;52.562;13.418;2023-10-19T09:32:08;14.20;25.80
22827;DHT22;11580;52.562;13.418;2023-10-19T09:34:39;14.20;25.30
22827;DHT22;11580;52.562;13.418;2023-10-19T09:37:10;14.20;25.30
22827;DHT22;11580;52.562;13.418;2023-10-19T09:39:38;14.20;26.00
22827;DHT22;11580;52.562;13.418;2023-10-19T09:42:10;14.20;25.50
22827;DHT22;11580;52.562;13.418;2023-10-19T09:44:43;14.20;25.50
22827;DHT22;11580;52.562;13.418;2023-10-19T09:47:14;14.20;25.50
22827;DHT22;11580;52.562;13.418;2023-10-19T09:49:45;14.20;25.50
22827;DHT22;11580;52.562;13.418;2023-10-19T09:52:16;14.20;26.00
22827;DHT22;11580;52.562;13.418;2023-10-19T09:54:50;14.20;25.50
22827;DHT22;11580;52.562;13.418;2023-10-19T09:57:29;14.20;25.30
22827;DHT22;11580;52.562;13.418;2023-10-19T10:00:05;14.20;25.40
22827;DHT22;11580;52.562;13.418;2023-10-19T10:02:39;14.30;25.60
22827;DHT22;11580;52.562;13.418;2023-10-19T10:05:45;14.20;25.60
22827;DHT22;11580;52.562;13.418;2023-10-19T10:08:32;14.10;25.60
22827;DHT22;11580;52.562;13.418;2023-10-19T10:11:18;14.10;25.60
22827;DHT22;11580;52.562;13.418;2023-10-19T10:13:46;14.10;25.70
22827;DHT22;11580;52.562;13.418;2023-10-19T10:16:21;14.10;25.90
22827;DHT22;11580;52.562;13.418;2023-10-19T10:18:51;14.10;25.80
22827;DHT22;11580;52.562;13.418;2023-10-19T10:21:25;14.20;25.90
22827;DHT22;11580;52.562;13.418;2023-10-19T10:23:54;14.10;25.80
22827;DHT22;11580;52.562;13.418;2023-10-19T10:26:24;14.10;26.20
22827;DHT22;11580;52.562;13.418;2023-10-19T10:29:09;14.10;25.50
22827;DHT22;11580;52.562;13.418;2023-10-19T10:31:44;14.10;25.50
22827;DHT22;11580;52.562;13.418;2023-10-19T10:34:46;14.10;25.60
22827;DHT22;11580;52.562;13.418;2023-10-19T10:37:15;14.00;25.60
22827;DHT22;11580;52.562;13.418;2023-10-19T10:39:42;14.00;25.60
22827;DHT22;11580;52.562;13.418;2023-10-19T10:42:10;14.10;26.00
22827;DHT22;11580;52.562;13.418;2023-10-19T10:44:42;13.90;26.10
22827;DHT22;11580;52.562;13.418;2023-10-19T10:47:16;13.80;26.60
22827;DHT22;11580;52.562;13.418;2023-10-19T10:49:48;13.80;26.70
22827;DHT22;11580;52.562;13.418;2023-10-19T10:52:30;13.90;26.80
22827;DHT22;11580;52.562;13.418;2023-10-19T10:55:07;13.80;26.90
22827;DHT22;11580;52.562;13.418;2023-10-19T10:57:37;13.80;26.70
22827;DHT22;11580;52.562;13.418;2023-10-19T11:00:06;13.90;26.30
22827;DHT22;11580;52.562;13.418;2023-10-19T11:02:37;13.70;26.10
22827;DHT22;11580;52.562;13.418;2023-10-19T11:05:08;13.60;26.10
22827;DHT22;11580;52.562;13.418;2023-10-19T11:07:37;13.60;26.10
22827;DHT22;11580;52.562;13.418;2023-10-19T11:10:05;13.60;26.20
22827;DHT22;11580;52.562;13.418;2023-10-19T11:12:35;13.50;26.20
22827;DHT22;11580;52.562;13.418;2023-10-19T11:15:04;13.50;26.90
22827;DHT22;11580;52.562;13.418;2023-10-19T11:17:42;13.40;26.40
22827;DHT22;11580;52.562;13.418;2023-10-19T11:20:21;13.40;27.40
22827;DHT22;11580;52.562;13.418;2023-10-19T11:22:49;13.40;27.00
22827;DHT22;11580;52.562;13.418;2023-10-19T11:25:18;13.40;26.90
22827;DHT22;11580;52.562;13.418;2023-10-19T11:27:46;13.40;27.10
22827;DHT22;11580;52.562;13.418;2023-10-19T11:30:22;13.40;27.10
22827;DHT22;11580;52.562;13.418;2023-10-19T11:32:52;13.40;27.40
22827;DHT22;11580;52.562;13.418;2023-10-19T11:35:23;13.30;27.40
22827;DHT22;11580;52.562;13.418;2023-10-19T11:37:53;13.40;27.90
22827;DHT22;11580;52.562;13.418;2023-10-19T11:40:21;13.30;27.50
22827;DHT22;11580;52.562;13.418;2023-10-19T11:42:51;13.30;27.60
22827;DHT22;11580;52.562;13.418;2023-10-19T11:45:18;13.30;27.70
22827;DHT22;11580;52.562;13.418;2023-10-19T11:47:46;13.20;27.80
22827;DHT22;11580;52.562;13.418;2023-10-19T11:50:14;13.20;28.00
22827;DHT22;11580;52.562;13.418;2023-10-19T11:52:42;13.20;28.20
22827;DHT22;11580;52.562;13.418;2023-10-19T11:55:09;13.20;28.60
22827;DHT22;11580;52.562;13.418;2023-10-19T11:57:39;13.20;28.40
22827;DHT22;11580;52.562;13.418;2023-10-19T12:00:10;13.10;28.50
22827;DHT22;11580;52.562;13.418;2023-10-19T12:02:45;13.10;28.70
22827;DHT22;11580;52.562;13.418;2023-10-19T12:05:14;13.00;28.70
22827;DHT22;11580;52.562;13.418;2023-10-19T12:07:41;13.10;29.00
22827;DHT22;11580;52.562;13.418;2023-10-19T12:10:11;13.00;28.90
22827;DHT22;11580;52.562;13.418;2023-10-19T12:12:38;13.00;28.80
22827;DHT22;11580;52.562;13.418;2023-10-19T12:15:08;12.90;28.80
22827;DHT22;11580;52.562;13.418;2023-10-19T12:17:38;12.90;29.10
22827;DHT22;11580;52.562;13.418;2023-10-19T12:20:06;12.90;29.20
22827;DHT22;11580;52.562;13.418;2023-10-19T12:22:35;12.90;29.60
22827;DHT22;11580;52.562;13.418;2023-10-19T12:25:05;12.80;29.80
22827;DHT22;11580;52.562;13.418;2023-10-19T12:27:32;12.80;29.50
22827;DHT22;11580;52.562;13.418;2023-10-19T12:30:00;12.80;29.50
22827;DHT22;11580;52.562;13.418;2023-10-19T12:32:39;12.80;29.60
22827;DHT22;11580;52.562;13.418;2023-10-19T12:35:06;12.80;29.60
22827;DHT22;11580;52.562;13.418;2023-10-19T12:37:38;12.80;29.80
22827;DHT22;11580;52.562;13.418;2023-10-19T12:40:12;12.80;30.10
22827;DHT22;11580;52.562;13.418;2023-10-19T12:42:52;12.80;30.60
22827;DHT22;11580;52.562;13.418;2023-10-19T12:45:20;12.80;30.50
22827;DHT22;11580;52.562;13.418;2023-10-19T12:47:47;12.80;29.80
22827;DHT22;11580;52.562;13.418;2023-10-19T12:50:15;12.90;29.90
22827;DHT22;11580;52.562;13.418;2023-10-19T12:52:43;12.80;29.90
22827;DHT22;11580;52.562;13.418;2023-10-19T12:55:11;12.80;30.10
22827;DHT22;11580;52.562;13.418;2023-10-19T12:57:38;12.50;29.70
22827;DHT22;11580;52.562;13.418;2023-10-19T13:00:07;12.70;29.80
22827;DHT22;11580;52.562;13.418;2023-10-19T13:03:03;12.60;30.20
22827;DHT22;11580;52.562;13.418;2023-10-19T13:05:32;12.60;30.20
22827;DHT22;11580;52.562;13.418;2023-10-19T13:08:00;12.60;30.20
22827;DHT22;11580;52.562;13.418;2023-10-19T13:10:31;12.50;30.10
22827;DHT22;11580;52.562;13.418;2023-10-19T13:13:02;12.50;31.10
22827;DHT22;11580;52.562;13.418;2023-10-19T13:15:32;12.50;31.30
22827;DHT22;11580;52.562;13.418;2023-10-19T13:18:02;12.50;30.60
22827;DHT22;11580;52.562;13.418;2023-10-19T13:20:31;12.50;30.40
22827;DHT22;11580;52.562;13.418;2023-10-19T13:23:00;12.50;30.10
22827;DHT22;11580;52.562;13.418;2023-10-19T13:25:30;12.50;30.30
22827;DHT22;11580;52.562;13.418;2023-10-19T13:28:08;12.50;30.40
22827;DHT22;11580;52.562;13.418;2023-10-19T13:30:37;12.50;30.60
22827;DHT22;11580;52.562;13.418;2023-10-19T13:33:06;12.60;30.80
22827;DHT22;11580;52.562;13.418;2023-10-19T13:35:36;12.50;30.90
22827;DHT22;11580;52.562;13.418;2023-10-19T13:38:04;12.40;30.60
22827;DHT22;11580;52.562;13.418;2023-10-19T13:40:33;12.60;30.80
22827;DHT22;11580;52.562;13.418;2023-10-19T13:43:02;12.40;30.50
22827;DHT22;11580;52.562;13.418;2023-10-19T13:45:32;12.40;30.60
22827;DHT22;11580;52.562;13.418;2023-10-19T13:48:01;12.40;30.60
22827;DHT22;11580;52.562;13.418;2023-10-19T13:50:30;12.40;30.60
22827;DHT22;11580;52.562;13.418;2023-10-19T13:52:59;12.40;31.00
22827;DHT22;11580;52.562;13.418;2023-10-19T13:55:28;12.40;31.40
22827;DHT22;11580;52.562;13.418;2023-10-19T13:57:55;12.40;30.80
22827;DHT22;11580;52.562;13.418;2023-10-19T14:00:24;12.40;31.60
22827;DHT22;11580;52.562;13.418;2023-10-19T14:02:56;12.50;31.30
22827;DHT22;11580;52.562;13.418;2023-10-19T14:05:24;12.40;31.20
22827;DHT22;11580;52.562;13.418;2023-10-19T14:07:53;12.40;31.10
22827;DHT22;11580;52.562;13.418;2023-10-19T14:10:21;12.40;31.40
22827;DHT22;11580;52.562;13.418;2023-10-19T14:12:50;12.40;31.10
22827;DHT22;11580;52.562;13.418;2023-10-19T14:15:19;12.50;31.50
22827;DHT22;11580;52.562;13.418;2023-10-19T14:17:48;12.50;30.90
22827;DHT22;11580;52.562;13.418;2023-10-19T14:20:16;12.40;31.40
22827;DHT22;11580;52.562;13.418;2023-10-19T14:22:45;12.50;30.80
22827;DHT22;11580;52.562;13.418;2023-10-19T14:25:16;12.40;30.70
22827;DHT22;11580;52.562;13.418;2023-10-19T14:27:49;12.40;30.80
22827;DHT22;11580;52.562;13.418;2023-10-19T14:30:22;12.40;31.00
22827;DHT22;11580;52.562;13.418;2023-10-19T14:32:50;12.40;31.90
22827;DHT22;11580;52.562;13.418;2023-10-19T14:35:18;12.40;30.80
22827;DHT22;11580;52.562;13.418;2023-10-19T14:37:48;12.40;30.90
22827;DHT22;11580;52.562;13.418;2023-10-19T14:40:19;12.40;31.10
22827;DHT22;11580;52.562;13.418;2023-10-19T14:42:49;12.40;31.20
22827;DHT22;11580;52.562;13.418;2023-10-19T14:45:20;12.40;30.70
22827;DHT22;11580;52.562;13.418;2023-10-19T14:47:52;12.40;30.80
22827;DHT22;11580;52.562;13.418;2023-10-19T14:50:21;12.40;31.00
22827;DHT22;11580;52.562;13.418;2023-10-19T14:52:50;12.30;31.00
22827;DHT22;11580;52.562;13.418;2023-10-19T14:55:19;12.30;31.20
22827;DHT22;11580;52.562;13.418;2023-10-19T14:57:48;12.30;31.40
22827;DHT22;11580;52.562;13.418;2023-10-19T15:00:18;12.30;32.10
22827;DHT22;11580;52.562;13.418;2023-10-19T15:02:53;12.30;31.20
22827;DHT22;11580;52.562;13.418;2023-10-19T15:05:21;12.20;31.50
22827;DHT22;11580;52.562;13.418;2023-10-19T15:07:51;12.20;32.20
22827;DHT22;11580;52.562;13.418;2023-10-19T15:10:23;12.20;31.70
22827;DHT22;11580;52.562;13.418;2023-10-19T15:12:52;12.20;32.20
22827;DHT22;11580;52.562;13.418;2023-10-19T15:15:20;12.20;31.50
22827;DHT22;11580;52.562;13.418;2023-10-19T15:17:48;12.20;31.50
22827;DHT22;11580;52.562;13.418;2023-10-19T15:20:19;12.20;31.70
22827;DHT22;11580;52.562;13.418;2023-10-19T15:22:48;12.20;31.90
22827;DHT22;11580;52.562;13.418;2023-10-19T15:25:15;12.20;31.70
22827;DHT22;11580;52.562;13.418;2023-10-19T15:27:47;12.20;32.40
22827;DHT22;11580;52.562;13.418;2023-10-19T15:30:15;12.10;32.00
22827;DHT22;11580;52.562;13.418;2023-10-19T15:32:44;12.10;31.80
22827;DHT22;11580;52.562;13.418;2023-10-19T15:35:12;12.20;32.00
22827;DHT22;11580;52.562;13.418;2023-10-19T15:37:44;12.10;32.10